Time;durP1;ratioP1;P1;durP2;ratioP2;P2;SDS_P1;SDS_P2;PMS_P1;PMS_P2;Temp;Humidity;BMP_temperature;BMP_pressure;BME280_temperature;BME280_humidity;BME280_pressure;Samples;Min_cycle;Max_cycle;Signal;HPM_P1;HPM_P2
2022/10/08 00:01:34;;;;;;;7.10;6.20;;;14.20;99.90;;;;;;5134858;27;20714;-72
2022/10/08 00:04:00;;;;;;;8.90;6.28;;;14.10;99.90;;;;;;5134619;27;20879;-72
2022/10/08 00:06:28;;;;;;;7.83;6.20;;;14.00;99.90;;;;;;5134752;27;20896;-72
2022/10/08 00:08:57;;;;;;;8.02;6.32;;;14.00;99.90;;;;;;5134659;27;20394;-71
2022/10/08 00:11:28;;;;;;;8.30;6.00;;;13.90;99.90;;;;;;5134485;27;20880;-72
2022/10/08 00:13:54;;;;;;;8.02;6.53;;;14.10;99.90;;;;;;5134344;27;20389;-72
2022/10/08 00:16:29;;;;;;;7.63;5.72;;;14.20;99.90;;;;;;5133954;27;20386;-72
2022/10/08 00:19:00;;;;;;;10.68;6.40;;;14.20;99.90;;;;;;5134669;27;20378;-72
2022/10/08 00:21:31;;;;;;;8.55;5.82;;;14.30;99.90;;;;;;5134480;27;20395;-72
2022/10/08 00:23:57;;;;;;;9.60;6.70;;;14.10;99.90;;;;;;5113633;28;20403;-72
2022/10/08 00:26:25;;;;;;;7.57;6.05;;;14.10;99.90;;;;;;5113700;28;20708;-72
2022/10/08 00:28:53;;;;;;;8.68;6.20;;;14.10;99.90;;;;;;5127260;27;20390;-71
2022/10/08 00:31:22;;;;;;;9.35;6.20;;;14.10;99.90;;;;;;5133863;27;20397;-72
2022/10/08 00:33:49;;;;;;;7.65;5.88;;;14.00;99.90;;;;;;5133922;27;20383;-72
2022/10/08 00:36:15;;;;;;;8.30;6.30;;;14.10;99.90;;;;;;5115616;27;20410;-72
2022/10/08 00:38:40;;;;;;;7.77;5.87;;;14.00;99.90;;;;;;5134293;27;20432;-72
2022/10/08 00:41:15;;;;;;;7.80;5.80;;;14.10;99.90;;;;;;5134121;27;20403;-72
2022/10/08 00:43:43;;;;;;;8.00;6.53;;;14.20;99.90;;;;;;5133599;27;20478;-72
2022/10/08 00:46:24;;;;;;;7.82;5.72;;;14.30;99.90;;;;;;5133796;27;20379;-72
2022/10/08 00:49:12;;;;;;;6.60;5.40;;;14.20;99.90;;;;;;5134005;27;20453;-72
2022/10/08 00:51:43;;;;;;;10.80;6.10;;;14.20;99.90;;;;;;5132709;27;20401;-72
2022/10/08 00:54:09;;;;;;;9.52;5.80;;;14.20;99.90;;;;;;5132802;27;20485;-72
2022/10/08 00:56:37;;;;;;;6.57;5.40;;;14.10;99.90;;;;;;5133133;27;20386;-72
2022/10/08 00:59:03;;;;;;;8.55;5.40;;;14.20;99.90;;;;;;5133783;27;20381;-72
2022/10/08 01:01:29;;;;;;;8.43;5.68;;;14.20;99.90;;;;;;5133332;27;20490;-72
2022/10/08 01:03:56;;;;;;;9.77;5.72;;;14.30;99.90;;;;;;5133486;27;20386;-72
2022/10/08 01:06:29;;;;;;;7.15;5.03;;;14.20;99.90;;;;;;5133607;27;20392;-72
2022/10/08 01:09:19;;;;;;;8.95;5.28;;;14.20;99.90;;;;;;5132916;27;20378;-72
2022/10/08 01:11:48;;;;;;;6.95;5.55;;;14.20;99.90;;;;;;5133583;27;20735;-72
2022/10/08 01:14:28;;;;;;;8.90;5.80;;;14.20;99.90;;;;;;5133054;27;20386;-72
2022/10/08 01:17:14;;;;;;;9.25;5.63;;;14.20;99.90;;;;;;5133375;27;20389;-72
2022/10/08 01:19:47;;;;;;;9.77;5.45;;;14.20;99.90;;;;;;5133318;27;20466;-72
2022/10/08 01:22:28;;;;;;;13.93;5.35;;;14.20;99.90;;;;;;5133208;27;20428;-72
2022/10/08 01:28:16;;;;;;;6.40;5.22;;;14.30;99.90;;;;;;5132687;27;20409;-72
2022/10/08 01:30:50;;;;;;;8.25;5.22;;;14.30;99.90;;;;;;5132543;27;20390;-71
2022/10/08 01:33:28;;;;;;;10.82;6.30;;;14.10;99.90;;;;;;5133028;27;20371;-72
2022/10/08 01:35:56;;;;;;;7.30;5.00;;;14.10;99.90;;;;;;5133212;27;20371;-71
2022/10/08 01:38:28;;;;;;;7.72;4.80;;;14.10;99.90;;;;;;5132905;27;20898;-72
2022/10/08 01:40:57;;;;;;;6.60;5.50;;;14.10;99.90;;;;;;5132990;27;20409;-72
2022/10/08 01:43:27;;;;;;;7.70;5.00;;;14.10;99.90;;;;;;5114004;27;20393;-72
2022/10/08 01:45:57;;;;;;;8.40;5.82;;;14.10;99.90;;;;;;5132942;27;20374;-72
2022/10/08 01:48:27;;;;;;;7.80;5.83;;;14.00;99.90;;;;;;5132878;27;20371;-72
2022/10/08 01:51:07;;;;;;;7.78;4.90;;;14.10;99.90;;;;;;5132514;27;20418;-71
2022/10/08 01:53:48;;;;;;;9.02;5.93;;;14.00;99.90;;;;;;5132279;27;20371;-72
2022/10/08 01:56:22;;;;;;;8.52;5.60;;;13.90;99.90;;;;;;5132232;27;20778;-72
2022/10/08 01:58:58;;;;;;;9.43;5.35;;;14.00;99.90;;;;;;5132564;27;20459;-72
2022/10/08 02:01:43;;;;;;;10.23;5.70;;;13.90;99.90;;;;;;5132291;27;20430;-72
2022/10/08 02:06:55;;;;;;;11.48;5.93;;;13.90;99.90;;;;;;5131774;27;20378;-72
2022/10/08 02:09:25;;;;;;;10.48;5.53;;;14.00;99.90;;;;;;5131314;27;20477;-72
2022/10/08 02:11:51;;;;;;;7.72;5.72;;;13.90;99.90;;;;;;5132129;27;20387;-72
2022/10/08 02:14:18;;;;;;;8.82;5.10;;;13.90;99.90;;;;;;5131909;27;20386;-72
2022/10/08 02:16:53;;;;;;;12.70;5.50;;;13.80;99.90;;;;;;5132280;27;20398;-72
2022/10/08 02:19:28;;;;;;;7.50;5.22;;;13.80;99.90;;;;;;5132107;27;20797;-72
2022/10/08 02:21:55;;;;;;;7.78;5.40;;;13.80;99.90;;;;;;5127995;27;20408;-72
2022/10/08 02:24:29;;;;;;;8.85;5.50;;;13.80;99.90;;;;;;5129830;27;20386;-72
2022/10/08 02:26:57;;;;;;;9.83;5.67;;;13.80;99.90;;;;;;5131858;27;20786;-72
2022/10/08 02:29:39;;;;;;;10.20;5.72;;;13.80;99.90;;;;;;5131775;27;20377;-72
2022/10/08 02:32:28;;;;;;;10.03;5.60;;;13.90;99.90;;;;;;5132034;27;20378;-72
2022/10/08 02:35:24;;;;;;;8.95;5.70;;;13.80;99.90;;;;;;5092755;28;20507;-72
2022/10/08 02:38:04;;;;;;;8.80;5.20;;;13.80;99.90;;;;;;5111236;28;20414;-72
2022/10/08 02:40:31;;;;;;;8.23;5.05;;;14.00;99.90;;;;;;5111160;28;20473;-72
2022/10/08 02:43:04;;;;;;;7.13;5.85;;;13.90;99.90;;;;;;5110659;28;20396;-72
2022/10/08 02:45:36;;;;;;;7.07;4.85;;;14.00;99.90;;;;;;5111170;28;20807;-72
2022/10/08 02:48:12;;;;;;;6.53;5.13;;;14.00;99.90;;;;;;5098931;27;20394;-72
2022/10/08 02:50:41;;;;;;;7.90;5.10;;;14.00;99.90;;;;;;5131945;27;20473;-71
2022/10/08 02:53:09;;;;;;;8.60;5.90;;;13.90;99.90;;;;;;5129814;27;20381;-71
2022/10/08 02:55:51;;;;;;;9.23;5.55;;;13.90;99.90;;;;;;5131461;27;20371;-71
2022/10/08 02:58:17;;;;;;;8.90;5.30;;;13.90;99.90;;;;;;5131398;27;20367;-72
2022/10/08 03:00:52;;;;;;;8.07;5.80;;;14.00;99.90;;;;;;5131375;27;20477;-71
2022/10/08 03:03:32;;;;;;;9.40;5.47;;;13.90;99.90;;;;;;5131086;27;20911;-71
2022/10/08 03:06:01;;;;;;;7.28;5.63;;;13.90;99.90;;;;;;5131293;27;20371;-71
2022/10/08 03:08:29;;;;;;;11.75;5.63;;;14.00;99.90;;;;;;5130962;27;21029;-71
2022/10/08 03:10:55;;;;;;;11.57;5.53;;;14.10;99.90;;;;;;5131242;27;20383;-71
2022/10/08 03:13:22;;;;;;;10.07;5.05;;;14.20;99.90;;;;;;5130879;27;20419;-71
2022/10/08 03:15:51;;;;;;;9.65;5.47;;;14.20;99.90;;;;;;5131095;27;20939;-72
2022/10/08 03:18:18;;;;;;;9.35;6.22;;;14.10;99.90;;;;;;5130718;27;20361;-71
2022/10/08 03:20:47;;;;;;;9.80;5.10;;;14.20;99.90;;;;;;5130227;27;20421;-71
2022/10/08 03:23:16;;;;;;;10.00;5.03;;;14.10;99.90;;;;;;5130350;27;20478;-72
2022/10/08 03:25:41;;;;;;;11.13;5.25;;;14.20;99.90;;;;;;5130797;27;20378;-71
2022/10/08 03:28:07;;;;;;;9.27;5.30;;;14.20;99.90;;;;;;5130847;27;20371;-71
2022/10/08 03:30:33;;;;;;;8.30;5.20;;;14.20;99.90;;;;;;5130330;27;20725;-71
2022/10/08 03:32:58;;;;;;;6.85;5.65;;;14.10;99.90;;;;;;5130966;27;20383;-71
2022/10/08 03:35:27;;;;;;;8.67;5.60;;;14.10;99.90;;;;;;5130944;27;20474;-71
2022/10/08 03:37:52;;;;;;;9.90;5.70;;;14.00;99.90;;;;;;5131440;27;20721;-71
2022/10/08 03:40:19;;;;;;;12.57;5.50;;;14.10;99.90;;;;;;5131271;27;20371;-71
2022/10/08 03:42:45;;;;;;;7.30;5.20;;;14.10;99.90;;;;;;5130866;27;20423;-71
2022/10/08 03:45:10;;;;;;;5.90;4.70;;;14.10;99.90;;;;;;5131233;27;20755;-71
2022/10/08 03:47:36;;;;;;;9.07;5.80;;;14.20;99.90;;;;;;5131192;27;20375;-71
2022/10/08 03:50:01;;;;;;;8.73;5.00;;;14.20;99.90;;;;;;5130738;27;20403;-71
2022/10/08 03:52:29;;;;;;;8.63;4.60;;;14.20;99.90;;;;;;5130799;27;20390;-71
2022/10/08 03:54:55;;;;;;;8.35;4.80;;;14.20;99.90;;;;;;5112595;28;20383;-71
2022/10/08 03:57:20;;;;;;;8.38;5.35;;;14.30;99.90;;;;;;5131159;28;20868;-72
2022/10/08 03:59:46;;;;;;;8.10;5.20;;;14.30;99.90;;;;;;5130996;28;20876;-72
2022/10/08 04:02:11;;;;;;;7.90;5.30;;;14.30;99.90;;;;;;5130858;28;20406;-72
2022/10/08 04:04:37;;;;;;;7.38;5.30;;;14.30;99.90;;;;;;5130780;28;20778;-72
2022/10/08 04:07:02;;;;;;;7.93;5.13;;;14.30;99.90;;;;;;5130771;28;20377;-72
2022/10/08 04:09:28;;;;;;;9.83;5.37;;;14.30;99.90;;;;;;5130059;28;20410;-72
2022/10/08 04:11:53;;;;;;;7.82;4.93;;;14.30;99.90;;;;;;5130955;28;20370;-72
2022/10/08 04:14:19;;;;;;;7.20;5.20;;;14.30;99.90;;;;;;5130597;28;20378;-72
2022/10/08 04:16:44;;;;;;;6.67;4.73;;;14.20;99.90;;;;;;5130748;28;20371;-72
2022/10/08 04:19:11;;;;;;;6.10;5.25;;;14.20;99.90;;;;;;5129427;27;20400;-72
2022/10/08 04:21:36;;;;;;;6.18;5.35;;;14.20;99.90;;;;;;5110018;28;20403;-72
2022/10/08 04:24:02;;;;;;;7.60;5.30;;;14.20;99.90;;;;;;5122922;27;20383;-71
2022/10/08 04:26:27;;;;;;;7.75;5.07;;;14.30;99.90;;;;;;5122664;28;20387;-72
2022/10/08 04:28:53;;;;;;;6.30;4.50;;;14.30;99.90;;;;;;5124409;28;20383;-72
2022/10/08 04:31:22;;;;;;;10.40;5.13;;;14.30;99.90;;;;;;5125648;28;20384;-72
2022/10/08 04:33:48;;;;;;;7.90;4.75;;;14.30;99.90;;;;;;5101981;28;20379;-71
2022/10/08 04:36:16;;;;;;;8.50;5.30;;;14.20;99.90;;;;;;5118840;28;20901;-72
2022/10/08 04:38:43;;;;;;;6.93;5.03;;;14.30;99.90;;;;;;5125247;28;20718;-72
2022/10/08 04:41:11;;;;;;;9.25;4.90;;;14.20;99.90;;;;;;5125479;27;20387;-72
2022/10/08 04:43:38;;;;;;;7.40;5.10;;;14.20;99.90;;;;;;5126130;27;20757;-72
2022/10/08 04:46:06;;;;;;;8.30;4.75;;;14.30;99.90;;;;;;5124787;27;20416;-72
2022/10/08 04:48:31;;;;;;;6.78;4.97;;;14.30;99.90;;;;;;5104408;27;20384;-72
2022/10/08 04:50:59;;;;;;;12.30;6.03;;;14.40;99.90;;;;;;5123689;27;20864;-72
2022/10/08 04:53:25;;;;;;;5.50;4.90;;;14.40;99.90;;;;;;5124245;27;20811;-72
2022/10/08 04:55:52;;;;;;;7.35;5.32;;;14.40;99.90;;;;;;5103441;27;20381;-72
2022/10/08 04:58:18;;;;;;;7.80;5.20;;;14.40;99.90;;;;;;5130422;27;20379;-72
2022/10/08 05:00:44;;;;;;;5.70;4.40;;;14.40;99.90;;;;;;5128902;27;20390;-73
2022/10/08 05:03:09;;;;;;;9.00;5.32;;;14.50;99.90;;;;;;5129291;27;20390;-72
2022/10/08 05:05:40;;;;;;;7.90;5.30;;;14.40;99.90;;;;;;5129836;27;20398;-72
2022/10/08 05:08:06;;;;;;;5.50;4.90;;;14.40;99.90;;;;;;5111865;27;20426;-72
2022/10/08 05:10:31;;;;;;;9.13;5.50;;;14.40;99.90;;;;;;5134515;27;20472;-72
2022/10/08 05:12:57;;;;;;;5.70;5.10;;;14.30;99.90;;;;;;5119613;27;20381;-72
2022/10/08 05:15:22;;;;;;;10.33;5.10;;;14.30;99.90;;;;;;5137156;27;20377;-72
2022/10/08 05:17:48;;;;;;;6.80;4.80;;;14.30;99.90;;;;;;5147372;27;20390;-72
2022/10/08 05:20:13;;;;;;;8.13;5.55;;;14.30;99.90;;;;;;5137514;27;20470;-72
2022/10/08 05:22:39;;;;;;;7.30;5.50;;;14.50;99.90;;;;;;5127303;27;20414;-72
2022/10/08 05:25:05;;;;;;;7.63;5.93;;;14.40;99.90;;;;;;5124532;27;20383;-72
2022/10/08 05:27:30;;;;;;;10.13;5.50;;;14.60;99.90;;;;;;5124856;27;20788;-72
2022/10/08 05:29:56;;;;;;;7.93;5.80;;;14.50;99.90;;;;;;5126102;27;20473;-72
2022/10/08 05:32:21;;;;;;;9.02;6.18;;;14.70;99.90;;;;;;5126776;27;20396;-72
2022/10/08 05:34:47;;;;;;;7.70;6.27;;;15.10;99.90;;;;;;5125017;27;20378;-71
2022/10/08 05:37:13;;;;;;;10.05;6.50;;;15.10;99.90;;;;;;5109864;27;20422;-72
2022/10/08 05:39:38;;;;;;;9.45;7.03;;;15.10;99.90;;;;;;5125177;27;20472;-71
2022/10/08 05:42:03;;;;;;;7.50;6.70;;;15.30;99.90;;;;;;5125444;27;20395;-71
2022/10/08 05:44:29;;;;;;;7.75;6.00;;;15.30;99.90;;;;;;5111758;27;20393;-71
2022/10/08 05:46:54;;;;;;;7.93;7.15;;;15.40;99.90;;;;;;5123947;27;20412;-71
2022/10/08 05:49:27;;;;;;;6.90;6.20;;;15.40;99.90;;;;;;5125915;27;20422;-71
2022/10/08 05:51:52;;;;;;;6.85;6.25;;;15.60;99.90;;;;;;5127663;27;20399;-71
2022/10/08 05:54:19;;;;;;;8.70;6.50;;;15.60;99.90;;;;;;5125972;27;20596;-72
2022/10/08 05:56:44;;;;;;;10.10;7.25;;;15.60;99.90;;;;;;5123787;27;20801;-72
2022/10/08 05:59:21;;;;;;;11.27;7.33;;;15.50;99.90;;;;;;5133956;27;20386;-72
2022/10/08 06:01:50;;;;;;;10.98;7.72;;;15.60;99.90;;;;;;5127663;27;20442;-72
2022/10/08 06:04:17;;;;;;;9.57;7.40;;;15.60;99.90;;;;;;5126770;27;20381;-72
2022/10/08 06:06:43;;;;;;;9.10;7.87;;;15.70;99.90;;;;;;5131332;27;20894;-71
2022/10/08 06:09:15;;;;;;;9.55;7.95;;;15.70;99.90;;;;;;5132837;27;20409;-72
2022/10/08 06:11:41;;;;;;;11.77;7.72;;;15.70;99.90;;;;;;5132126;27;20394;-71
2022/10/08 06:14:09;;;;;;;8.80;7.85;;;15.70;99.90;;;;;;5114120;27;20428;-72
2022/10/08 06:16:35;;;;;;;11.00;8.17;;;15.60;99.90;;;;;;5132720;27;20499;-72
2022/10/08 06:19:02;;;;;;;11.93;8.23;;;15.60;99.90;;;;;;5128897;27;20482;-72
2022/10/08 06:21:28;;;;;;;9.07;7.72;;;15.60;99.90;;;;;;5132087;27;20398;-72
2022/10/08 06:23:56;;;;;;;11.97;8.00;;;15.60;99.90;;;;;;5131788;27;20904;-71
2022/10/08 06:26:25;;;;;;;8.82;7.38;;;15.60;99.90;;;;;;5132296;27;20872;-72
2022/10/08 06:28:51;;;;;;;10.43;7.47;;;15.70;99.90;;;;;;5132431;27;20385;-72
2022/10/08 06:31:16;;;;;;;9.75;7.78;;;15.70;99.90;;;;;;5132322;27;20391;-72
2022/10/08 06:33:42;;;;;;;13.50;7.93;;;15.60;99.90;;;;;;5132131;27;20375;-72
2022/10/08 06:36:14;;;;;;;10.80;9.43;;;15.60;99.90;;;;;;5132050;27;20421;-71
2022/10/08 06:38:40;;;;;;;10.48;8.20;;;15.80;99.90;;;;;;5131260;27;20439;-71
2022/10/08 06:41:06;;;;;;;10.40;8.37;;;15.80;99.90;;;;;;5128513;27;20398;-71
2022/10/08 06:43:31;;;;;;;13.73;8.43;;;15.80;99.90;;;;;;5130453;27;20399;-71
2022/10/08 06:45:59;;;;;;;8.95;7.85;;;15.70;99.90;;;;;;5130397;27;20386;-73
2022/10/08 06:48:26;;;;;;;9.90;7.88;;;15.70;99.90;;;;;;5111668;27;20973;-71
2022/10/08 06:51:01;;;;;;;8.68;7.78;;;15.80;99.90;;;;;;5128238;27;20490;-72
2022/10/08 06:53:27;;;;;;;10.20;8.45;;;15.80;99.90;;;;;;5128786;27;20443;-71
2022/10/08 06:55:57;;;;;;;10.70;8.65;;;15.70;99.90;;;;;;5128062;27;20387;-71
2022/10/08 06:58:23;;;;;;;11.70;9.07;;;15.80;99.90;;;;;;5128674;27;20387;-71
2022/10/08 07:00:48;;;;;;;9.60;8.00;;;15.80;99.90;;;;;;5130214;27;20532;-71
2022/10/08 07:03:14;;;;;;;9.70;8.70;;;15.70;99.90;;;;;;5129769;27;20410;-72
2022/10/08 07:05:39;;;;;;;10.07;7.70;;;15.70;99.90;;;;;;5111023;27;20387;-71
2022/10/08 07:08:05;;;;;;;11.43;8.27;;;15.70;99.90;;;;;;5129999;27;20397;-72
2022/10/08 07:10:32;;;;;;;9.47;7.90;;;15.80;99.90;;;;;;5130020;27;20379;-72
2022/10/08 07:12:58;;;;;;;9.50;8.60;;;15.70;99.90;;;;;;5129579;27;20379;-72
2022/10/08 07:15:23;;;;;;;10.40;8.20;;;15.80;99.90;;;;;;5129692;27;20463;-71
2022/10/08 07:17:49;;;;;;;9.20;8.30;;;15.90;99.90;;;;;;5129925;27;20728;-71
2022/10/08 07:20:14;;;;;;;9.23;8.07;;;15.90;99.90;;;;;;5129848;27;20945;-72
2022/10/08 07:22:40;;;;;;;10.77;8.17;;;15.90;99.90;;;;;;5129458;27;20410;-71
2022/10/08 07:25:05;;;;;;;11.18;8.88;;;15.90;99.90;;;;;;5129853;27;20383;-72
2022/10/08 07:27:31;;;;;;;10.20;8.82;;;15.90;99.90;;;;;;5129313;27;20399;-71
2022/10/08 07:29:56;;;;;;;9.87;8.00;;;16.00;99.90;;;;;;5128676;27;20398;-72
2022/10/08 07:32:22;;;;;;;9.77;8.47;;;16.00;99.90;;;;;;5128088;27;20451;-72
2022/10/08 07:34:47;;;;;;;11.18;8.80;;;15.90;99.90;;;;;;5128047;27;20646;-72
2022/10/08 07:37:13;;;;;;;11.20;7.60;;;15.80;99.90;;;;;;5129107;27;20386;-72
2022/10/08 07:39:38;;;;;;;8.80;7.90;;;15.90;99.90;;;;;;5129495;27;20387;-73
2022/10/08 07:42:07;;;;;;;10.47;8.20;;;15.80;99.90;;;;;;5119233;27;20429;-73
2022/10/08 07:44:32;;;;;;;9.50;8.60;;;15.90;99.90;;;;;;5126709;27;20375;-73
2022/10/08 07:46:58;;;;;;;9.45;8.43;;;15.80;99.90;;;;;;5129269;27;20954;-73
2022/10/08 07:49:26;;;;;;;14.90;8.60;;;15.80;99.90;;;;;;5127298;27;20387;-73
2022/10/08 07:51:52;;;;;;;8.80;7.80;;;15.80;99.90;;;;;;5126152;27;20776;-73
2022/10/08 07:54:18;;;;;;;10.13;8.50;;;15.80;99.90;;;;;;5125395;27;20391;-72
2022/10/08 07:56:44;;;;;;;12.13;9.27;;;15.80;99.90;;;;;;5124164;28;20440;-72
2022/10/08 07:59:13;;;;;;;11.27;10.07;;;15.80;99.90;;;;;;5128026;28;20418;-73
2022/10/08 08:01:40;;;;;;;13.30;8.97;;;15.80;99.90;;;;;;5127413;28;20738;-73
2022/10/08 08:04:07;;;;;;;10.30;9.27;;;15.80;99.90;;;;;;5127842;28;20389;-72
2022/10/08 08:06:38;;;;;;;10.50;8.48;;;15.80;99.90;;;;;;5127888;28;20428;-72
2022/10/08 08:09:04;;;;;;;12.25;8.98;;;15.80;99.90;;;;;;5128592;28;20460;-72
2022/10/08 08:11:29;;;;;;;9.87;8.87;;;15.90;99.90;;;;;;5129329;28;20767;-72
2022/10/08 08:13:55;;;;;;;10.30;9.30;;;15.70;99.90;;;;;;5128747;28;20896;-72
2022/10/08 08:16:26;;;;;;;9.60;8.70;;;15.80;99.90;;;;;;5129498;27;20390;-73
2022/10/08 08:18:58;;;;;;;9.93;8.82;;;15.90;99.90;;;;;;5134172;27;20387;-72
2022/10/08 08:21:32;;;;;;;10.43;8.60;;;15.80;99.90;;;;;;5132790;27;20474;-72
2022/10/08 08:24:03;;;;;;;11.13;8.80;;;15.60;99.90;;;;;;5110556;27;20418;-73
2022/10/08 08:26:31;;;;;;;9.93;8.50;;;15.70;99.90;;;;;;5132548;27;20375;-73
2022/10/08 08:29:03;;;;;;;10.40;8.98;;;15.80;99.90;;;;;;5130615;27;20437;-73
2022/10/08 08:31:31;;;;;;;10.30;8.60;;;15.80;99.90;;;;;;5130807;27;20741;-72
2022/10/08 08:33:59;;;;;;;9.80;8.80;;;15.80;99.90;;;;;;5129454;27;20386;-73
2022/10/08 08:36:33;;;;;;;16.30;8.98;;;15.90;99.90;;;;;;5129932;27;20402;-73
2022/10/08 08:39:00;;;;;;;10.15;8.77;;;15.90;99.90;;;;;;5132693;27;20392;-73
2022/10/08 08:41:36;;;;;;;10.23;9.07;;;15.80;99.90;;;;;;5125319;27;20797;-73
2022/10/08 08:44:10;;;;;;;10.55;8.75;;;15.90;99.90;;;;;;5109168;27;20395;-73
2022/10/08 08:46:39;;;;;;;10.85;8.73;;;15.70;99.90;;;;;;5129662;27;20390;-73
2022/10/08 08:49:36;;;;;;;10.85;9.75;;;15.70;99.90;;;;;;5129099;27;20402;-73
2022/10/08 08:52:04;;;;;;;9.68;8.52;;;15.70;99.90;;;;;;5110330;27;20924;-73
2022/10/08 08:54:30;;;;;;;11.20;9.02;;;15.80;99.90;;;;;;5127131;27;20468;-72
2022/10/08 08:57:07;;;;;;;12.68;8.40;;;15.80;99.90;;;;;;5125658;27;20402;-73
2022/10/08 08:59:40;;;;;;;9.03;7.30;;;15.90;99.90;;;;;;5130329;27;20434;-73
2022/10/08 09:02:21;;;;;;;9.10;8.30;;;15.90;99.90;;;;;;5129560;27;20435;-73
2022/10/08 09:04:50;;;;;;;9.30;7.78;;;16.00;99.90;;;;;;5128496;27;20386;-73
2022/10/08 09:07:21;;;;;;;9.00;7.97;;;16.00;99.90;;;;;;5128873;27;20738;-73
2022/10/08 09:09:50;;;;;;;8.75;7.93;;;16.00;99.90;;;;;;5125772;27;20470;-73
2022/10/08 09:12:32;;;;;;;10.10;9.10;;;15.90;99.90;;;;;;5127719;27;20418;-73
2022/10/08 09:15:00;;;;;;;9.02;8.13;;;15.90;99.90;;;;;;5124326;27;20433;-73
2022/10/08 09:17:32;;;;;;;9.98;8.90;;;16.00;99.90;;;;;;5126624;27;20411;-73
2022/10/08 09:19:59;;;;;;;11.80;8.88;;;16.00;99.90;;;;;;5122422;27;20402;-73
2022/10/08 09:22:30;;;;;;;12.82;10.10;;;16.10;99.90;;;;;;5126110;27;20405;-73
2022/10/08 09:25:02;;;;;;;10.93;9.70;;;16.20;99.90;;;;;;5127411;27;20394;-73
2022/10/08 09:27:54;;;;;;;11.60;9.05;;;16.20;99.90;;;;;;5127594;27;21191;-73
2022/10/08 09:30:26;;;;;;;9.00;8.20;;;16.10;99.90;;;;;;5128586;27;20408;-72
2022/10/08 09:32:53;;;;;;;10.57;8.90;;;16.20;99.90;;;;;;5131656;27;20390;-73
2022/10/08 09:35:19;;;;;;;9.82;7.50;;;16.20;99.90;;;;;;5133013;27;20398;-74
2022/10/08 09:37:47;;;;;;;8.90;7.57;;;16.30;99.90;;;;;;5132621;27;20872;-73
2022/10/08 09:40:12;;;;;;;7.80;6.43;;;16.30;99.90;;;;;;5114607;27;20395;-74
2022/10/08 09:42:38;;;;;;;8.03;7.23;;;16.40;99.90;;;;;;5131524;27;20393;-72
2022/10/08 09:45:36;;;;;;;6.45;5.78;;;16.40;99.90;;;;;;5110662;27;20389;-73
2022/10/08 09:48:19;;;;;;;6.75;5.05;;;16.70;99.90;;;;;;5130504;27;20382;-72
2022/10/08 09:50:52;;;;;;;9.65;5.75;;;16.90;99.90;;;;;;5128468;27;20394;-73
2022/10/08 09:53:20;;;;;;;7.00;4.85;;;17.10;99.90;;;;;;5131272;27;20466;-73
2022/10/08 09:55:53;;;;;;;5.90;4.50;;;17.20;99.90;;;;;;5124354;27;20486;-73
2022/10/08 09:58:20;;;;;;;7.15;4.43;;;17.20;99.90;;;;;;5127784;27;20386;-73
2022/10/08 10:00:55;;;;;;;5.15;4.05;;;17.10;99.90;;;;;;5126370;27;20390;-72
2022/10/08 10:03:22;;;;;;;6.10;3.80;;;16.90;99.90;;;;;;5129289;27;20482;-72
2022/10/08 10:05:52;;;;;;;3.85;3.50;;;16.70;99.90;;;;;;5131729;27;20424;-72
2022/10/08 10:08:42;;;;;;;7.10;3.60;;;16.50;99.90;;;;;;5105881;27;20755;-73
2022/10/08 10:11:34;;;;;;;5.00;3.20;;;16.60;99.90;;;;;;5132548;27;20396;-73
2022/10/08 10:14:06;;;;;;;4.53;3.40;;;16.60;99.90;;;;;;5121199;27;20383;-73
2022/10/08 10:16:39;;;;;;;6.95;3.58;;;16.70;99.90;;;;;;5130239;27;20788;-73
2022/10/08 10:19:17;;;;;;;4.05;3.00;;;16.90;99.90;;;;;;5129171;27;20421;-72
2022/10/08 10:22:04;;;;;;;8.02;2.90;;;16.90;99.90;;;;;;5129387;27;20407;-72
2022/10/08 10:25:00;;;;;;;6.97;2.95;;;16.90;99.90;;;;;;5130685;27;20767;-73
2022/10/08 10:27:31;;;;;;;4.28;2.80;;;16.90;99.90;;;;;;5132598;27;20378;-73
2022/10/08 10:30:13;;;;;;;6.95;3.00;;;17.00;99.90;;;;;;5132062;27;20386;-73
2022/10/08 10:33:06;;;;;;;4.18;2.40;;;17.30;99.90;;;;;;5132295;27;20492;-72
2022/10/08 10:35:36;;;;;;;5.33;3.70;;;17.20;99.90;;;;;;5132585;27;20460;-72
2022/10/08 10:38:16;;;;;;;3.10;2.40;;;17.00;99.90;;;;;;5132372;27;20842;-72
2022/10/08 10:40:46;;;;;;;4.95;2.40;;;17.10;99.90;;;;;;5131193;27;20751;-72
2022/10/08 10:43:41;;;;;;;4.68;2.50;;;17.30;99.90;;;;;;5131723;27;21062;-73
2022/10/08 10:46:32;;;;;;;3.30;2.25;;;17.40;99.90;;;;;;5132433;27;20433;-72
2022/10/08 10:48:58;;;;;;;5.15;2.83;;;17.40;99.90;;;;;;5132058;27;20407;-73
2022/10/08 10:51:45;;;;;;;5.18;2.72;;;17.30;99.90;;;;;;5132072;27;20405;-73
2022/10/08 10:54:28;;;;;;;4.25;2.50;;;17.20;99.90;;;;;;5131773;27;20444;-73
2022/10/08 10:57:03;;;;;;;6.72;2.72;;;17.20;99.90;;;;;;5132122;27;20864;-73
2022/10/08 10:59:45;;;;;;;5.35;2.42;;;17.40;99.90;;;;;;5132018;27;20404;-73
2022/10/08 11:02:37;;;;;;;5.28;2.80;;;17.50;99.90;;;;;;5131222;27;20431;-73
2022/10/08 11:05:06;;;;;;;4.60;2.58;;;17.50;99.90;;;;;;5131842;27;20459;-73
2022/10/08 11:07:46;;;;;;;3.80;2.20;;;17.50;99.90;;;;;;5131972;27;20453;-73
2022/10/08 11:10:48;;;;;;;2.53;2.33;;;17.30;99.90;;;;;;5131667;27;20435;-73
2022/10/08 11:13:55;;;;;;;3.80;2.17;;;17.70;99.90;;;;;;5131528;27;20398;-72
2022/10/08 11:16:47;;;;;;;4.03;2.20;;;17.50;99.90;;;;;;5113189;27;20382;-72
2022/10/08 11:19:50;;;;;;;3.58;2.00;;;17.50;99.90;;;;;;5131279;27;20903;-72
2022/10/08 11:22:28;;;;;;;3.22;2.10;;;17.90;99.90;;;;;;5124018;27;20412;-72
2022/10/08 11:25:16;;;;;;;3.10;2.10;;;18.30;99.90;;;;;;5111133;28;20861;-72
2022/10/08 11:27:51;;;;;;;5.25;2.10;;;18.30;99.90;;;;;;5110974;28;20841;-72
2022/10/08 11:30:20;;;;;;;4.13;2.03;;;18.50;99.90;;;;;;5110742;28;20418;-72
2022/10/08 11:32:55;;;;;;;4.22;1.80;;;18.80;99.90;;;;;;5092377;28;20422;-73
2022/10/08 11:35:27;;;;;;;3.63;2.03;;;18.80;98.70;;;;;;5122858;27;20390;-73
2022/10/08 11:38:04;;;;;;;3.00;2.20;;;19.90;96.60;;;;;;5131554;27;20383;-73
2022/10/08 11:40:55;;;;;;;4.25;2.05;;;19.70;98.40;;;;;;5131221;27;20381;-72
2022/10/08 11:43:26;;;;;;;3.70;2.00;;;19.00;97.00;;;;;;5131110;27;20772;-73
2022/10/08 11:46:30;;;;;;;3.67;2.60;;;18.40;99.90;;;;;;5131352;27;20841;-73
2022/10/08 11:49:10;;;;;;;3.57;2.20;;;19.30;98.70;;;;;;5125100;27;20886;-73
2022/10/08 11:51:48;;;;;;;3.97;2.20;;;19.90;97.40;;;;;;5130958;27;20456;-72
2022/10/08 11:54:17;;;;;;;4.90;1.90;;;20.00;95.30;;;;;;5132584;27;20892;-73
2022/10/08 11:57:21;;;;;;;2.53;1.92;;;20.10;98.30;;;;;;5131104;28;20411;-73
2022/10/08 12:00:29;;;;;;;4.35;1.98;;;20.80;93.90;;;;;;5124896;28;20741;-72
2022/10/08 12:02:55;;;;;;;5.35;2.70;;;19.80;96.00;;;;;;5130864;28;20398;-73
2022/10/08 12:05:20;;;;;;;3.40;2.20;;;18.80;99.90;;;;;;5131363;28;20449;-72
2022/10/08 12:07:52;;;;;;;3.30;2.30;;;18.70;99.90;;;;;;5131905;28;20414;-73
2022/10/08 12:10:17;;;;;;;5.07;2.17;;;18.50;99.90;;;;;;5131061;28;20386;-73
2022/10/08 12:12:49;;;;;;;3.67;2.33;;;18.30;99.90;;;;;;5130578;28;20386;-73
2022/10/08 12:15:23;;;;;;;3.28;2.47;;;18.30;99.90;;;;;;5130818;28;20386;-74
2022/10/08 12:18:01;;;;;;;3.05;1.92;;;18.00;99.90;;;;;;5122155;28;20935;-74
2022/10/08 12:20:31;;;;;;;3.08;2.20;;;18.00;99.90;;;;;;5120865;28;20405;-74
2022/10/08 12:23:11;;;;;;;3.03;2.20;;;18.00;99.90;;;;;;5121130;28;20481;-74
2022/10/08 12:25:47;;;;;;;3.60;2.70;;;18.20;99.90;;;;;;5124629;28;20764;-73
2022/10/08 12:28:19;;;;;;;3.42;2.47;;;18.40;99.90;;;;;;5125458;28;20751;-73
2022/10/08 12:30:52;;;;;;;3.47;2.40;;;18.70;99.90;;;;;;5100485;28;20407;-72
2022/10/08 12:33:19;;;;;;;6.28;2.90;;;18.60;99.90;;;;;;5124984;27;20368;-73
2022/10/08 12:35:59;;;;;;;4.57;3.10;;;18.70;99.90;;;;;;5121487;27;20410;-73
2022/10/08 12:38:50;;;;;;;4.75;3.25;;;17.70;99.90;;;;;;5107550;28;20399;-73
2022/10/08 12:41:41;;;;;;;3.63;2.50;;;17.90;99.90;;;;;;5127919;28;20468;-73
2022/10/08 12:44:15;;;;;;;2.95;2.50;;;17.80;99.90;;;;;;5124944;28;20912;-73
2022/10/08 12:47:04;;;;;;;5.63;2.80;;;17.70;99.90;;;;;;5130531;28;20383;-73
2022/10/08 12:49:42;;;;;;;4.30;2.80;;;17.60;99.90;;;;;;5115860;28;20498;-72
2022/10/08 12:52:16;;;;;;;4.47;2.60;;;17.90;99.90;;;;;;5120734;28;20808;-72
2022/10/08 12:54:51;;;;;;;4.47;2.92;;;18.30;99.90;;;;;;5121923;28;20477;-72
2022/10/08 12:57:24;;;;;;;5.10;3.00;;;18.20;99.90;;;;;;5129687;28;20386;-72
2022/10/08 12:59:50;;;;;;;5.45;2.70;;;18.20;99.90;;;;;;5121588;28;20392;-72
2022/10/08 13:02:31;;;;;;;3.63;2.65;;;18.30;99.90;;;;;;5109366;27;20985;-73
2022/10/08 13:04:57;;;;;;;4.35;3.00;;;17.80;99.90;;;;;;5125995;27;20391;-72
2022/10/08 13:07:34;;;;;;;6.22;3.10;;;17.50;99.90;;;;;;5128622;27;20418;-73
2022/10/08 13:10:02;;;;;;;4.13;2.80;;;17.60;99.90;;;;;;5131874;27;20444;-73
2022/10/08 13:12:28;;;;;;;4.43;3.15;;;17.60;99.90;;;;;;5133798;27;20827;-72
2022/10/08 13:15:04;;;;;;;3.97;2.50;;;17.60;99.90;;;;;;5133757;27;20410;-73